Latest Weather Observations for Alice Springs Airport

IDD60801

Issued at 6:51 pm CST Tuesday 23 October 2018 (issued every 10 minutes, with the page automatically refreshed every 10 minutes)

About weather observations | Map of weather stations | Latest weather observations for NT | Other Formats
Station Details ID: 015590 Name: ALICE SPRINGS AIRPORT Lat: -23.80 Lon: 133.89 Height: 546.0 m
Data from the previous 72 hours. | See also: Recent months at Alice Springs Airport
Date/Time
CST
Temp
°C
App
Temp
°C
Dew
Point
°C
Rel
Hum
%
Delta-T
°C
Wind Press
QNH
hPa
Press
MSL
hPa
Rain since
9am
mm
Dir  Spd
km/h
Gust
km/h
Spd
kts
Gust
kts
23/06:30pm 33.9 26.1 -3.4 9 17.8 ESE 28 37 15 20 1011.4 1008.6 0.0
23/06:00pm 35.1 27.3 -4.1 8 18.6 ESE 28 41 15 22 1011.2 1008.4 0.0
23/05:30pm 36.2 27.7 -3.3 8 19.1 ESE 32 41 17 22 1010.8 1008.0 0.0
23/05:00pm 36.9 29.0 -4.5 7 19.7 ESE 28 35 15 19 1010.6 1007.8 0.0
23/04:30pm 36.9 29.8 -4.5 7 19.8 ENE 24 37 13 20 1010.6 1007.8 0.0
23/04:00pm 37.9 31.2 -3.8 7 20.2 ESE 22 33 12 18 1010.6 1007.8 0.0
23/03:30pm 37.5 30.2 -6.1 6 20.4 ESE 24 35 13 19 1010.9 1008.1 0.0
23/03:00pm 38.0 31.7 -5.8 6 20.7 NE 19 35 10 19 1011.0 1008.2 0.0
23/02:30pm 38.1 34.1 -5.7 6 20.7 WSW 7 11 4 6 1011.4 1008.6 0.0
23/02:00pm 37.8 32.1 -3.9 7 20.2 E 17 32 9 17 1011.8 1009.1 0.0
23/01:30pm 36.9 30.5 -6.5 6 20.1 E 19 33 10 18 1012.4 1009.6 0.0
23/01:00pm 37.3 32.7 -4.2 7 19.9 NNE 11 19 6 10 1012.9 1010.1 0.0
23/12:30pm 35.7 31.7 -5.4 7 19.2 NW 7 19 4 10 1013.5 1010.8 0.0
23/12:00pm 35.8 30.7 -5.3 7 19.2 SE 13 30 7 16 1013.8 1011.1 0.0
23/11:30am 35.7 30.6 -5.4 7 19.2 SE 13 22 7 12 1014.4 1011.6 0.0
23/11:00am 34.6 29.0 -6.2 7 18.6 E 15 26 8 14 1014.7 1011.9 0.0
23/10:30am 34.4 29.6 -6.3 7 18.5 ESE 11 19 6 10 1014.9 1012.1 0.0
23/10:00am 34.1 30.2 -6.5 7 18.4 NNE 6 15 3 8 1015.1 1012.4 0.0
23/09:30am 34.2 29.0 -6.5 7 18.4 NE 13 24 7 13 1015.1 1012.4 0.0
23/09:00am 32.7 24.5 -7.6 7 17.7 N 28 41 15 22 1014.2 1011.4 0.0
23/08:30am 30.4 23.5 -6.0 9 16.1 N 22 30 12 16 1014.3 1011.5 0.0
23/08:00am 30.1 24.5 -6.2 9 16.0 N 15 19 8 10 1014.3 1011.5 0.0
23/07:30am 28.8 25.6 -7.2 9 15.4 ESE 2 6 1 3 1014.0 1011.2 0.0
23/07:17am 27.9 24.1 -5.2 11 14.6 ESE 6 11 3 6 1013.8 1011.1 0.0
23/07:00am 22.6 18.3 -4.5 16 11.5 S 9 11 5 6 1013.6 1010.9 0.0
23/06:30am 20.4 16.7 -4.7 18 10.4 SSW 6 9 3 5 1013.3 1010.5 0.0
23/06:00am 18.9 15.2 -4.5 20 9.6 SSE 6 9 3 5 1013.0 1010.2 0.0
23/05:30am 19.2 15.9 -4.3 20 9.7 S 4 7 2 4 1012.5 1009.7 0.0
23/05:00am 20.4 16.1 -4.7 18 10.4 E 9 13 5 7 1012.2 1009.4 0.0
23/04:30am 20.9 17.0 -5.0 17 10.8 NNE 7 15 4 8 1011.7 1009.0 0.0
23/04:00am 22.3 17.2 -5.6 15 11.6 NE 13 17 7 9 1011.6 1008.8 0.0
23/03:30am 23.3 17.4 -5.7 14 12.2 NNE 17 20 9 11 1011.6 1008.8 0.0
23/03:00am 23.6 18.1 -5.4 14 12.3 NNE 15 17 8 9 1011.6 1008.8 0.0
23/02:30am 24.7 18.8 -5.5 13 12.9 NNE 17 20 9 11 1011.6 1008.8 0.0
23/02:00am 23.7 18.3 -4.4 15 12.1 NNE 15 19 8 10 1011.8 1009.1 0.0
23/01:30am 23.0 20.5 -4.1 16 11.7 CALM 0 0 0 0 1012.4 1009.6 0.0
23/01:00am 20.5 17.3 -3.2 20 10.2 NNE 4 7 2 4 1012.6 1009.8 0.0
23/12:30am 21.0 17.2 -3.5 19 10.5 ENE 7 9 4 5 1012.9 1010.1 0.0
23/12:00am 21.7 19.2 -3.6 18 10.9 CALM 0 6 0 3 1013.2 1010.4 0.0
 
Date/Time
CST
Temp
°C
App
Temp
°C
Dew
Point
°C
Rel
Hum
%
Delta-T
°C
Wind Press
QNH
hPa
Press
MSL
hPa
Rain since
9am
mm
Dir  Spd
km/h
Gust
km/h
Spd
kts
Gust
kts
22/11:30pm 23.4 19.4 -5.6 14 12.2 ENE 7 9 4 5 1013.2 1010.4 0.0
22/11:00pm 25.2 19.7 -5.1 13 13.1 ENE 15 19 8 10 1013.1 1010.3 0.0
22/10:30pm 25.3 20.6 -5.1 13 13.1 ESE 11 13 6 7 1013.4 1010.7 0.0
22/10:00pm 27.6 22.5 -5.5 11 14.5 E 13 15 7 8 1013.2 1010.4 0.0
22/09:30pm 27.8 22.7 -5.3 11 14.5 ENE 13 15 7 8 1013.0 1010.2 0.0
22/09:00pm 29.4 24.0 -4.1 11 15.2 E 15 19 8 10 1012.8 1010.0 0.0
22/08:30pm 29.5 25.0 -2.9 12 15.1 ENE 11 15 6 8 1012.6 1009.8 0.0
22/08:00pm 30.3 26.3 -2.2 12 15.4 S 9 13 5 7 1011.8 1009.1 0.0
22/07:30pm 31.5 28.0 -1.3 12 15.9 ENE 7 11 4 6 1011.5 1008.7 0.0
22/07:00pm 32.6 29.1 -1.7 11 16.6 SSE 7 9 4 5 1011.2 1008.4 0.0
22/06:30pm 34.4 30.9 -3.0 9 18.0 S 6 9 3 5 1010.9 1008.1 0.0
22/06:04pm 36.0 30.5 -1.8 9 18.7 W 17 37 9 20 1010.6 1007.8 0.0
22/06:00pm 36.0 31.7 -1.8 9 18.7 WSW 11 19 6 10 1010.6 1007.8 0.0
22/05:30pm 36.5 31.9 -1.4 9 19.0 N 13 19 7 10 1010.4 1007.6 0.0
22/05:00pm 35.7 32.7 -2.0 9 18.6 SSW 4 11 2 6 1010.3 1007.5 0.0
22/04:30pm 35.7 31.4 -2.0 9 18.6 WSW 11 17 6 9 1010.4 1007.6 0.0
22/04:00pm 35.7 30.6 -2.0 9 18.6 SW 15 28 8 15 1010.5 1007.7 0.0
22/03:30pm 37.5 31.6 -0.7 9 19.4 SW 20 33 11 18 1010.6 1007.8 0.0
22/03:00pm 36.6 30.6 -1.4 9 19.0 W 20 32 11 17 1011.0 1008.2 0.0
22/02:30pm 36.3 31.1 -0.2 10 18.6 WNW 17 30 9 16 1011.5 1008.7 0.0
22/02:00pm 37.4 32.5 -0.8 9 19.4 WSW 15 26 8 14 1011.8 1009.1 0.0
22/01:30pm 36.9 31.9 -1.1 9 19.1 N 15 26 8 14 1012.4 1009.6 0.0
22/01:00pm 35.7 31.2 -0.6 10 18.3 NW 13 20 7 11 1012.9 1010.1 0.0
22/12:30pm 35.9 31.4 -0.5 10 18.4 NNW 13 24 7 13 1013.4 1010.7 0.0
22/12:00pm 34.5 30.4 -0.2 11 17.5 NNE 11 19 6 10 1014.0 1011.2 0.0
22/11:30am 34.8 31.1 0.0 11 17.6 SSW 9 20 5 11 1014.6 1011.8 0.0
22/11:00am 34.8 31.1 0.0 11 17.6 WNW 9 13 5 7 1015.0 1012.3 0.0
22/10:30am 33.5 28.9 -1.0 11 17.0 N 13 19 7 10 1015.3 1012.6 0.0
22/10:00am 33.2 29.0 -1.2 11 16.9 N 11 22 6 12 1015.5 1012.8 0.0
22/09:30am 32.8 27.8 -1.5 11 16.7 NNE 15 19 8 10 1015.7 1013.0 0.0
22/09:00am 30.9 27.4 -3.0 11 15.9 NNE 6 11 3 6 1015.8 1013.1 0.0
22/08:30am 29.2 26.4 -3.1 12 14.9 NNE 2 7 1 4 1015.8 1013.1 0.0
22/08:00am 26.1 23.6 -4.4 13 13.4 CALM 0 0 0 0 1015.7 1013.0 0.0
22/07:30am 23.2 20.8 -3.2 17 11.6 CALM 0 0 0 0 1015.5 1012.8 0.0
22/07:00am 19.3 17.2 -0.7 26 8.9 CALM 0 4 0 2 1015.2 1012.5 0.0
22/06:30am 16.1 13.3 -0.6 32 7.3 W 4 7 2 4 1014.8 1012.0 0.0
22/06:00am 14.2 12.1 -1.0 35 6.4 CALM 0 6 0 3 1014.6 1011.8 0.0
22/05:30am 14.1 10.6 -1.1 35 6.4 NNE 7 9 4 5 1014.4 1011.6 0.0
22/05:00am 14.2 11.7 -1.0 35 6.4 NNW 2 7 1 4 1014.4 1011.6 0.0
22/04:30am 14.2 11.6 -1.4 34 6.5 S 2 7 1 4 1014.2 1011.4 0.0
22/04:00am 14.9 11.1 -0.8 34 6.7 NW 9 13 5 7 1014.2 1011.4 0.0
22/03:30am 15.9 11.5 -2.1 29 7.6 NW 11 13 6 7 1014.1 1011.3 0.0
22/03:00am 15.5 11.9 -2.0 30 7.3 WSW 7 9 4 5 1014.4 1011.6 0.0
22/02:30am 15.8 13.6 -1.7 30 7.4 CALM 0 0 0 0 1014.4 1011.6 0.0
22/02:00am 16.4 14.2 -1.7 29 7.7 CALM 0 0 0 0 1014.7 1011.9 0.0
22/01:30am 17.1 14.8 -2.0 27 8.1 CALM 0 0 0 0 1014.9 1012.1 0.0
22/01:00am 17.0 14.8 -1.6 28 8.0 CALM 0 0 0 0 1015.4 1012.7 0.0
22/12:30am 17.6 14.3 -1.1 28 8.1 S 6 7 3 4 1015.7 1013.0 0.0
22/12:00am 17.9 14.6 -1.3 27 8.4 ENE 6 7 3 4 1015.8 1013.1 0.0
 
Date/Time
CST
Temp
°C
App
Temp
°C
Dew
Point
°C
Rel
Hum
%
Delta-T
°C
Wind Press
QNH
hPa
Press
MSL
hPa
Rain since
9am
mm
Dir  Spd
km/h
Gust
km/h
Spd
kts
Gust
kts
21/11:30pm 19.0 16.9 -0.9 26 8.8 CALM 0 0 0 0 1016.3 1013.5 0.0
21/11:00pm 19.9 16.5 -1.8 23 9.5 ENE 6 7 3 4 1016.5 1013.7 0.0
21/10:30pm 19.6 16.2 -2.1 23 9.4 NNE 6 7 3 4 1016.5 1013.7 0.0
21/10:00pm 21.6 18.0 -2.3 20 10.5 E 7 7 4 4 1016.3 1013.5 0.0
21/09:30pm 23.2 19.0 -4.0 16 11.8 E 9 9 5 5 1016.2 1013.4 0.0
21/09:00pm 23.7 19.4 -4.4 15 12.1 ENE 9 13 5 7 1015.8 1013.1 0.0
21/08:30pm 24.6 19.9 -4.6 14 12.6 ESE 11 13 6 7 1015.6 1012.9 0.0
21/08:00pm 25.8 20.9 -3.7 14 13.1 ESE 13 13 7 7 1015.2 1012.5 0.0
21/07:30pm 26.7 22.1 -4.0 13 13.7 SE 11 13 6 7 1014.9 1012.1 0.0
21/07:00pm 27.7 23.5 -4.3 12 14.3 SE 9 11 5 6 1014.6 1011.8 0.0
21/06:30pm 29.9 25.0 -3.7 11 15.4 SSE 13 19 7 10 1014.3 1011.5 0.0
21/06:00pm 30.8 25.6 -3.0 11 15.8 S 15 19 8 10 1014.2 1011.4 0.0
21/05:30pm 31.4 25.8 -2.6 11 16.1 SSE 17 22 9 12 1014.1 1011.3 0.0
21/05:00pm 31.9 27.5 -2.2 11 16.3 SE 11 20 6 11 1014.0 1011.2 0.0
21/04:30pm 31.5 27.8 -2.5 11 16.1 SSE 7 17 4 9 1014.1 1011.3 0.0
21/04:00pm 30.8 27.3 -3.0 11 15.8 SSE 6 17 3 9 1014.3 1011.5 0.0
21/03:30pm 30.8 26.1 -1.9 12 15.6 SSE 13 22 7 12 1014.5 1011.7 0.0
21/03:00pm 31.0 27.1 -1.7 12 15.7 SE 9 15 5 8 1014.8 1012.0 0.0
21/02:30pm 30.7 26.4 -1.9 12 15.5 ESE 11 20 6 11 1015.3 1012.6 0.0
21/02:00pm 29.6 25.5 -2.8 12 15.1 NE 9 17 5 9 1016.0 1013.2 0.0
21/01:30pm 29.4 24.3 -1.9 13 14.8 ESE 15 26 8 14 1016.6 1013.8 0.0
21/01:00pm 28.3 23.9 -2.7 13 14.3 SE 11 19 6 10 1017.3 1014.6 0.0
21/12:30pm 27.5 23.0 -3.3 13 14.0 ESE 11 19 6 10 1018.0 1015.2 0.0
21/12:00pm 26.4 21.9 -3.2 14 13.3 NE 11 19 6 10 1018.6 1015.9 0.0
21/11:30am 25.8 20.6 -2.8 15 12.9 E 15 24 8 13 1019.2 1016.5 0.0
21/11:00am 25.3 20.2 -2.3 16 12.5 E 15 26 8 14 1020.0 1017.3 0.0
21/10:30am 23.9 18.1 -1.8 18 11.6 E 19 26 10 14 1020.4 1017.7 0.0
21/10:00am 23.1 17.7 -1.1 20 11.1 ESE 17 26 9 14 1020.7 1018.0 0.0
21/09:30am 22.3 16.3 -1.7 20 10.7 E 20 28 11 15 1020.8 1018.1 0.0
21/09:00am 21.2 14.9 -1.3 22 10.0 ESE 22 28 12 15 1020.9 1018.2 0.0
21/08:30am 20.7 13.6 -1.1 23 9.7 E 26 33 14 18 1020.8 1018.1 0.0
21/08:00am 19.7 13.7 -1.4 24 9.3 ENE 20 30 11 16 1020.5 1017.8 0.0
21/07:30am 18.0 13.3 -1.8 26 8.5 E 13 19 7 10 1020.3 1017.6 0.0
21/07:00am 14.7 12.4 -2.2 31 7.0 CALM 0 0 0 0 1020.1 1017.4 0.0
21/06:30am 11.6 8.3 -0.9 42 5.2 W 6 7 3 4 1019.7 1017.0 0.0
21/06:00am 10.1 6.8 -1.0 46 4.5 NNW 6 9 3 5 1019.5 1016.8 0.0
21/05:30am 11.0 8.8 -1.4 42 5.0 CALM 0 0 0 0 1018.9 1016.2 0.0
21/05:00am 11.4 9.3 -0.7 43 5.0 CALM 0 0 0 0 1018.6 1015.9 0.0
21/04:30am 11.9 9.8 -0.9 41 5.3 CALM 0 0 0 0 1018.5 1015.8 0.0
21/04:00am 12.4 10.3 -0.8 40 5.5 CALM 0 0 0 0 1018.3 1015.6 0.0
21/03:30am 12.3 10.1 -1.6 38 5.7 CALM 0 0 0 0 1018.3 1015.6 0.0
21/03:00am 12.4 9.9 -0.8 40 5.5 NNW 2 7 1 4 1018.2 1015.4 0.0
21/02:30am 13.5 9.1 -2.4 33 6.5 ESE 11 11 6 6 1018.2 1015.4 0.0
21/02:00am 14.7 11.0 -2.7 30 7.1 ESE 7 11 4 6 1018.4 1015.7 0.0
21/01:30am 14.2 10.3 -1.8 33 6.6 ESE 9 9 5 5 1018.8 1016.1 0.0
21/01:00am 15.2 11.5 -2.7 29 7.4 E 7 9 4 5 1019.3 1016.6 0.0
21/12:30am 16.0 11.9 -3.0 27 7.8 ESE 9 11 5 6 1019.6 1016.9 0.0
21/12:00am 16.9 12.8 -3.2 25 8.3 ESE 9 11 5 6 1020.0 1017.3 0.0
 
Date/Time
CST
Temp
°C
App
Temp
°C
Dew
Point
°C
Rel
Hum
%
Delta-T
°C
Wind Press
QNH
hPa
Press
MSL
hPa
Rain since
9am
mm
Dir  Spd
km/h
Gust
km/h
Spd
kts
Gust
kts
20/11:30pm 17.8 13.8 -2.5 25 8.6 ESE 9 11 5 6 1020.2 1017.5 0.0
20/11:00pm 18.1 13.7 -2.2 25 8.7 ESE 11 13 6 7 1020.5 1017.8 0.0
20/10:30pm 19.3 14.9 -2.3 23 9.3 ESE 11 13 6 7 1020.7 1018.0 0.0
20/10:00pm 18.9 14.6 -1.5 25 8.9 ESE 11 13 6 7 1020.9 1018.2 0.0
20/09:30pm 20.3 15.7 -0.9 24 9.5 SE 13 15 7 8 1020.7 1018.0 0.0
20/09:00pm 21.3 17.1 -0.6 23 9.9 ESE 11 13 6 7 1020.4 1017.7 0.0
20/08:30pm 21.9 17.8 -0.1 23 10.1 SE 11 13 6 7 1020.1 1017.4 0.0
20/08:00pm 23.5 19.0 -0.1 21 11.0 SE 13 19 7 10 1019.5 1016.8 0.0
20/07:30pm 24.5 19.7 0.1 20 11.5 SE 15 20 8 11 1018.8 1016.1 0.0
20/07:00pm 25.4 20.6 0.1 19 12.0 SE 15 24 8 13 1018.3 1015.6 0.0

Other Formats:

Comma delimited format used in spreadsheet applications
http://www.bom.gov.au/fwo/IDD60801/IDD60801.94326.axf

JavaScript Object Notation format (JSON) in row-major order
http://www.bom.gov.au/fwo/IDD60801/IDD60801.94326.json